Etusivu
METAR-TAF:

METAR-TAF

Lentoasemat :

Kisarazu, Japani

Leveyspiiri: 35-24N, Pituuspiiri: 139-55E, korkeus merenpinnasta: 3 m

Tämänhetkinen sää

Tämä raportti tehtiin 7 tuntia ja 18 minuuttia sitten, kello 03.35 UTC
Tuuli 11 kn lännestä
Lämpötila 17°C
Kosteus 48%
Ilmanpaine 1016 hPa
Näkyvyys 10 km tai enemmän
Muutamia pilviä 3000 ft:n korkeudessa
Hajanaisia pilviä 25000 ft:n korkeudessa

METAR: RJTK 200335Z 28011KT 9999 FEW030 SCT250 17/06 Q1016 RMK 1CU030 4CI250 A3000

Aika: 19:53 (10:53 UTC)


TAF: puuttuu

Säähavainnot ja -ennusteet yli 4000 lentoasemalta (METAR- ja TAF-raportit).

Käytössä olevat sääasemat on merkitty karttaan keltaisilla ja punaisilla pisteillä.

Aseta hiiri pisteen päälle nähdäksesi sääaseman nimen.

Klikkaa sitten nähdäksesi säähavainnot ja -ennusteet.

Kartan vaihtaminen: klikkaa mustalla rastilla varustettuja vihreitä pisteitä, niin voit zoomata sisään; viivalla varustettua vihreää pistettä, niin voit zoomata ulos tai vihreitä nuolia, niin pääset viereisille kartoille.


METAR-TAF: